sensor_id;sensor_type;location;lat;lon;timestamp;P1;durP1;ratioP1;P2;durP2;ratioP2
25153;SDS011;47555;51.038;6.280;2023-10-08T00:01:27;6.22;;;3.95;;
25153;SDS011;47555;51.038;6.280;2023-10-08T00:03:53;8.60;;;4.20;;
25153;SDS011;47555;51.038;6.280;2023-10-08T00:06:23;6.40;;;3.53;;
25153;SDS011;47555;51.038;6.280;2023-10-08T00:08:49;7.90;;;3.70;;
25153;SDS011;47555;51.038;6.280;2023-10-08T00:11:16;7.18;;;3.40;;
25153;SDS011;47555;51.038;6.280;2023-10-08T00:13:42;9.60;;;3.75;;
25153;SDS011;47555;51.038;6.280;2023-10-08T00:16:09;7.00;;;3.47;;
25153;SDS011;47555;51.038;6.280;2023-10-08T00:18:36;6.28;;;3.60;;
25153;SDS011;47555;51.038;6.280;2023-10-08T00:21:03;7.03;;;3.65;;
25153;SDS011;47555;51.038;6.280;2023-10-08T00:23:36;5.97;;;3.60;;
25153;SDS011;47555;51.038;6.280;2023-10-08T00:26:07;4.70;;;3.25;;
25153;SDS011;47555;51.038;6.280;2023-10-08T00:28:33;7.85;;;3.72;;
25153;SDS011;47555;51.038;6.280;2023-10-08T00:31:01;10.50;;;3.88;;
25153;SDS011;47555;51.038;6.280;2023-10-08T00:33:47;5.22;;;2.97;;
25153;SDS011;47555;51.038;6.280;2023-10-08T00:36:13;7.13;;;3.90;;
25153;SDS011;47555;51.038;6.280;2023-10-08T00:38:48;8.05;;;3.72;;
25153;SDS011;47555;51.038;6.280;2023-10-08T00:41:24;5.75;;;3.60;;
25153;SDS011;47555;51.038;6.280;2023-10-08T00:43:53;9.25;;;4.60;;
25153;SDS011;47555;51.038;6.280;2023-10-08T00:46:21;5.90;;;3.40;;
25153;SDS011;47555;51.038;6.280;2023-10-08T00:48:55;6.22;;;3.55;;
25153;SDS011;47555;51.038;6.280;2023-10-08T00:51:25;7.45;;;3.78;;
25153;SDS011;47555;51.038;6.280;2023-10-08T00:56:28;7.82;;;3.88;;
25153;SDS011;47555;51.038;6.280;2023-10-08T00:59:33;5.85;;;3.30;;
25153;SDS011;47555;51.038;6.280;2023-10-08T01:02:22;10.10;;;3.78;;
25153;SDS011;47555;51.038;6.280;2023-10-08T01:04:52;6.63;;;3.63;;
25153;SDS011;47555;51.038;6.280;2023-10-08T01:07:19;6.82;;;3.78;;
25153;SDS011;47555;51.038;6.280;2023-10-08T01:09:45;5.25;;;3.38;;
25153;SDS011;47555;51.038;6.280;2023-10-08T01:12:24;7.05;;;3.75;;
25153;SDS011;47555;51.038;6.280;2023-10-08T01:14:59;9.25;;;4.20;;
25153;SDS011;47555;51.038;6.280;2023-10-08T01:17:44;8.68;;;3.70;;
25153;SDS011;47555;51.038;6.280;2023-10-08T01:20:22;5.78;;;3.47;;
25153;SDS011;47555;51.038;6.280;2023-10-08T01:23:07;7.33;;;3.33;;
25153;SDS011;47555;51.038;6.280;2023-10-08T01:25:42;6.45;;;3.55;;
25153;SDS011;47555;51.038;6.280;2023-10-08T01:28:08;8.63;;;3.95;;
25153;SDS011;47555;51.038;6.280;2023-10-08T01:30:40;6.95;;;3.22;;
25153;SDS011;47555;51.038;6.280;2023-10-08T01:33:09;5.78;;;3.22;;
25153;SDS011;47555;51.038;6.280;2023-10-08T01:35:37;7.35;;;3.88;;
25153;SDS011;47555;51.038;6.280;2023-10-08T01:38:03;7.80;;;3.85;;
25153;SDS011;47555;51.038;6.280;2023-10-08T01:40:29;5.72;;;3.60;;
25153;SDS011;47555;51.038;6.280;2023-10-08T01:42:55;6.45;;;3.50;;
25153;SDS011;47555;51.038;6.280;2023-10-08T01:45:30;8.77;;;4.38;;
25153;SDS011;47555;51.038;6.280;2023-10-08T01:47:57;6.20;;;3.50;;
25153;SDS011;47555;51.038;6.280;2023-10-08T01:50:23;6.00;;;3.60;;
25153;SDS011;47555;51.038;6.280;2023-10-08T01:52:50;5.78;;;3.63;;
25153;SDS011;47555;51.038;6.280;2023-10-08T01:55:16;7.22;;;3.33;;
25153;SDS011;47555;51.038;6.280;2023-10-08T01:57:47;6.05;;;3.40;;
25153;SDS011;47555;51.038;6.280;2023-10-08T02:00:14;5.85;;;3.15;;
25153;SDS011;47555;51.038;6.280;2023-10-08T02:02:44;6.20;;;3.47;;
25153;SDS011;47555;51.038;6.280;2023-10-08T02:05:10;6.30;;;3.55;;
25153;SDS011;47555;51.038;6.280;2023-10-08T02:07:39;7.03;;;3.50;;
25153;SDS011;47555;51.038;6.280;2023-10-08T02:10:05;7.10;;;3.08;;
25153;SDS011;47555;51.038;6.280;2023-10-08T02:12:32;6.88;;;3.55;;
25153;SDS011;47555;51.038;6.280;2023-10-08T02:14:58;7.25;;;3.65;;
25153;SDS011;47555;51.038;6.280;2023-10-08T02:17:27;8.70;;;4.20;;
25153;SDS011;47555;51.038;6.280;2023-10-08T02:19:53;5.28;;;3.58;;
25153;SDS011;47555;51.038;6.280;2023-10-08T02:22:20;8.02;;;3.70;;
25153;SDS011;47555;51.038;6.280;2023-10-08T02:24:46;6.38;;;3.40;;
25153;SDS011;47555;51.038;6.280;2023-10-08T02:27:16;7.50;;;3.35;;
25153;SDS011;47555;51.038;6.280;2023-10-08T02:29:42;6.97;;;4.03;;
25153;SDS011;47555;51.038;6.280;2023-10-08T02:32:08;6.97;;;3.75;;
25153;SDS011;47555;51.038;6.280;2023-10-08T02:34:34;6.25;;;3.22;;
25153;SDS011;47555;51.038;6.280;2023-10-08T02:37:03;8.98;;;3.38;;
25153;SDS011;47555;51.038;6.280;2023-10-08T02:39:29;6.05;;;3.55;;
25153;SDS011;47555;51.038;6.280;2023-10-08T02:41:57;6.70;;;3.45;;
25153;SDS011;47555;51.038;6.280;2023-10-08T02:44:25;10.13;;;3.70;;
25153;SDS011;47555;51.038;6.280;2023-10-08T02:46:52;10.32;;;3.50;;
25153;SDS011;47555;51.038;6.280;2023-10-08T02:49:20;5.68;;;3.50;;
25153;SDS011;47555;51.038;6.280;2023-10-08T02:51:48;10.30;;;4.18;;
25153;SDS011;47555;51.038;6.280;2023-10-08T02:54:15;9.18;;;3.70;;
25153;SDS011;47555;51.038;6.280;2023-10-08T02:56:42;6.93;;;3.67;;
25153;SDS011;47555;51.038;6.280;2023-10-08T02:59:09;7.47;;;3.67;;
25153;SDS011;47555;51.038;6.280;2023-10-08T03:01:38;8.80;;;4.45;;
25153;SDS011;47555;51.038;6.280;2023-10-08T03:04:05;5.40;;;3.63;;
25153;SDS011;47555;51.038;6.280;2023-10-08T03:06:39;6.13;;;3.53;;
25153;SDS011;47555;51.038;6.280;2023-10-08T03:09:06;7.25;;;3.65;;
25153;SDS011;47555;51.038;6.280;2023-10-08T03:11:35;7.10;;;3.47;;
25153;SDS011;47555;51.038;6.280;2023-10-08T03:14:02;6.95;;;3.63;;
25153;SDS011;47555;51.038;6.280;2023-10-08T03:16:28;7.97;;;3.30;;
25153;SDS011;47555;51.038;6.280;2023-10-08T03:19:00;6.57;;;3.47;;
25153;SDS011;47555;51.038;6.280;2023-10-08T03:21:26;8.13;;;3.50;;
25153;SDS011;47555;51.038;6.280;2023-10-08T03:24:13;11.05;;;3.90;;
25153;SDS011;47555;51.038;6.280;2023-10-08T03:26:56;6.38;;;3.47;;
25153;SDS011;47555;51.038;6.280;2023-10-08T03:29:31;7.05;;;3.47;;
25153;SDS011;47555;51.038;6.280;2023-10-08T03:31:57;7.65;;;4.22;;
25153;SDS011;47555;51.038;6.280;2023-10-08T03:34:22;7.53;;;3.65;;
25153;SDS011;47555;51.038;6.280;2023-10-08T03:36:53;6.47;;;3.42;;
25153;SDS011;47555;51.038;6.280;2023-10-08T03:39:30;5.93;;;3.80;;
25153;SDS011;47555;51.038;6.280;2023-10-08T03:42:19;9.95;;;5.18;;
25153;SDS011;47555;51.038;6.280;2023-10-08T03:44:48;6.70;;;3.45;;
25153;SDS011;47555;51.038;6.280;2023-10-08T03:47:16;6.55;;;3.45;;
25153;SDS011;47555;51.038;6.280;2023-10-08T03:49:44;7.95;;;3.97;;
25153;SDS011;47555;51.038;6.280;2023-10-08T03:52:11;5.75;;;3.38;;
25153;SDS011;47555;51.038;6.280;2023-10-08T03:54:40;6.50;;;3.25;;
25153;SDS011;47555;51.038;6.280;2023-10-08T03:57:13;10.75;;;4.03;;
25153;SDS011;47555;51.038;6.280;2023-10-08T03:59:50;6.90;;;4.18;;
25153;SDS011;47555;51.038;6.280;2023-10-08T04:02:20;8.10;;;3.90;;
25153;SDS011;47555;51.038;6.280;2023-10-08T04:05:04;6.32;;;3.80;;
25153;SDS011;47555;51.038;6.280;2023-10-08T04:07:43;7.88;;;4.07;;
25153;SDS011;47555;51.038;6.280;2023-10-08T04:10:24;9.70;;;3.72;;
25153;SDS011;47555;51.038;6.280;2023-10-08T04:13:02;7.20;;;4.10;;
25153;SDS011;47555;51.038;6.280;2023-10-08T04:15:28;6.20;;;3.60;;
25153;SDS011;47555;51.038;6.280;2023-10-08T04:17:54;8.68;;;3.55;;
25153;SDS011;47555;51.038;6.280;2023-10-08T04:20:21;5.40;;;3.35;;
25153;SDS011;47555;51.038;6.280;2023-10-08T04:23:03;7.03;;;3.70;;
25153;SDS011;47555;51.038;6.280;2023-10-08T04:25:30;6.35;;;3.88;;
25153;SDS011;47555;51.038;6.280;2023-10-08T04:28:00;6.35;;;3.95;;
25153;SDS011;47555;51.038;6.280;2023-10-08T04:30:27;8.13;;;3.47;;
25153;SDS011;47555;51.038;6.280;2023-10-08T04:32:58;5.63;;;3.20;;
25153;SDS011;47555;51.038;6.280;2023-10-08T04:35:24;7.35;;;3.60;;
25153;SDS011;47555;51.038;6.280;2023-10-08T04:37:53;5.93;;;3.58;;
25153;SDS011;47555;51.038;6.280;2023-10-08T04:40:20;6.55;;;3.50;;
25153;SDS011;47555;51.038;6.280;2023-10-08T04:42:48;5.32;;;3.30;;
25153;SDS011;47555;51.038;6.280;2023-10-08T04:45:14;7.13;;;3.70;;
25153;SDS011;47555;51.038;6.280;2023-10-08T04:47:44;6.47;;;3.33;;
25153;SDS011;47555;51.038;6.280;2023-10-08T04:50:10;6.65;;;3.05;;
25153;SDS011;47555;51.038;6.280;2023-10-08T04:52:42;7.95;;;3.70;;
25153;SDS011;47555;51.038;6.280;2023-10-08T04:55:23;6.22;;;3.55;;
25153;SDS011;47555;51.038;6.280;2023-10-08T04:57:53;6.10;;;3.47;;
25153;SDS011;47555;51.038;6.280;2023-10-08T05:00:19;7.72;;;3.95;;
25153;SDS011;47555;51.038;6.280;2023-10-08T05:03:05;6.40;;;3.30;;
25153;SDS011;47555;51.038;6.280;2023-10-08T05:05:39;8.10;;;4.03;;
25153;SDS011;47555;51.038;6.280;2023-10-08T05:08:20;7.57;;;3.17;;
25153;SDS011;47555;51.038;6.280;2023-10-08T05:11:13;7.45;;;3.75;;
25153;SDS011;47555;51.038;6.280;2023-10-08T05:13:49;7.47;;;3.83;;
25153;SDS011;47555;51.038;6.280;2023-10-08T05:16:26;7.93;;;3.72;;
25153;SDS011;47555;51.038;6.280;2023-10-08T05:19:02;9.00;;;3.97;;
25153;SDS011;47555;51.038;6.280;2023-10-08T05:22:00;7.82;;;3.50;;
25153;SDS011;47555;51.038;6.280;2023-10-08T05:24:45;7.35;;;3.50;;
25153;SDS011;47555;51.038;6.280;2023-10-08T05:27:30;6.47;;;3.47;;
25153;SDS011;47555;51.038;6.280;2023-10-08T05:30:14;6.15;;;3.17;;
25153;SDS011;47555;51.038;6.280;2023-10-08T05:32:42;5.97;;;3.78;;
25153;SDS011;47555;51.038;6.280;2023-10-08T05:35:26;6.95;;;3.33;;
25153;SDS011;47555;51.038;6.280;2023-10-08T05:38:08;7.43;;;3.33;;
25153;SDS011;47555;51.038;6.280;2023-10-08T05:40:53;7.20;;;3.42;;
25153;SDS011;47555;51.038;6.280;2023-10-08T05:43:36;5.90;;;3.17;;
25153;SDS011;47555;51.038;6.280;2023-10-08T05:46:06;6.72;;;3.72;;
25153;SDS011;47555;51.038;6.280;2023-10-08T05:48:50;7.53;;;4.00;;
25153;SDS011;47555;51.038;6.280;2023-10-08T05:51:32;13.43;;;3.83;;
25153;SDS011;47555;51.038;6.280;2023-10-08T05:54:24;7.43;;;3.58;;
25153;SDS011;47555;51.038;6.280;2023-10-08T05:59:32;5.93;;;3.30;;
25153;SDS011;47555;51.038;6.280;2023-10-08T06:02:07;4.72;;;2.90;;
25153;SDS011;47555;51.038;6.280;2023-10-08T06:04:53;6.43;;;3.40;;
25153;SDS011;47555;51.038;6.280;2023-10-08T06:10:26;5.35;;;3.22;;
25153;SDS011;47555;51.038;6.280;2023-10-08T06:18:13;6.35;;;3.38;;
25153;SDS011;47555;51.038;6.280;2023-10-08T06:20:40;4.82;;;3.63;;
25153;SDS011;47555;51.038;6.280;2023-10-08T06:23:08;4.38;;;2.97;;
25153;SDS011;47555;51.038;6.280;2023-10-08T06:25:34;4.70;;;3.03;;
25153;SDS011;47555;51.038;6.280;2023-10-08T06:28:10;7.25;;;4.07;;
25153;SDS011;47555;51.038;6.280;2023-10-08T06:30:36;6.65;;;3.50;;
25153;SDS011;47555;51.038;6.280;2023-10-08T06:33:05;7.57;;;3.50;;
25153;SDS011;47555;51.038;6.280;2023-10-08T06:35:31;6.20;;;3.28;;
25153;SDS011;47555;51.038;6.280;2023-10-08T06:37:58;5.45;;;3.25;;
25153;SDS011;47555;51.038;6.280;2023-10-08T06:40:25;8.85;;;4.30;;
25153;SDS011;47555;51.038;6.280;2023-10-08T06:43:04;6.55;;;3.58;;
25153;SDS011;47555;51.038;6.280;2023-10-08T06:45:46;8.02;;;3.45;;
25153;SDS011;47555;51.038;6.280;2023-10-08T06:48:17;7.88;;;4.00;;
25153;SDS011;47555;51.038;6.280;2023-10-08T06:50:44;8.30;;;3.55;;
25153;SDS011;47555;51.038;6.280;2023-10-08T06:53:13;7.22;;;4.03;;
25153;SDS011;47555;51.038;6.280;2023-10-08T06:55:40;9.38;;;3.88;;
25153;SDS011;47555;51.038;6.280;2023-10-08T06:58:06;7.75;;;4.47;;
25153;SDS011;47555;51.038;6.280;2023-10-08T07:00:39;7.57;;;4.32;;
25153;SDS011;47555;51.038;6.280;2023-10-08T07:03:11;7.65;;;4.03;;
25153;SDS011;47555;51.038;6.280;2023-10-08T07:05:40;7.32;;;3.85;;
25153;SDS011;47555;51.038;6.280;2023-10-08T07:08:15;6.65;;;3.97;;
25153;SDS011;47555;51.038;6.280;2023-10-08T07:10:41;7.72;;;4.20;;
25153;SDS011;47555;51.038;6.280;2023-10-08T07:13:07;6.78;;;4.35;;
25153;SDS011;47555;51.038;6.280;2023-10-08T07:15:36;6.85;;;3.63;;
25153;SDS011;47555;51.038;6.280;2023-10-08T07:18:05;8.20;;;3.90;;
25153;SDS011;47555;51.038;6.280;2023-10-08T07:20:37;7.18;;;3.90;;
25153;SDS011;47555;51.038;6.280;2023-10-08T07:23:05;6.10;;;3.90;;
25153;SDS011;47555;51.038;6.280;2023-10-08T07:25:34;8.25;;;3.72;;
25153;SDS011;47555;51.038;6.280;2023-10-08T07:28:03;8.95;;;4.38;;
25153;SDS011;47555;51.038;6.280;2023-10-08T07:30:40;6.47;;;4.00;;
25153;SDS011;47555;51.038;6.280;2023-10-08T07:33:09;11.10;;;4.57;;
25153;SDS011;47555;51.038;6.280;2023-10-08T07:35:43;8.35;;;3.90;;
25153;SDS011;47555;51.038;6.280;2023-10-08T07:38:19;6.85;;;3.88;;
25153;SDS011;47555;51.038;6.280;2023-10-08T07:40:47;6.70;;;4.30;;
25153;SDS011;47555;51.038;6.280;2023-10-08T07:43:13;7.82;;;3.70;;
25153;SDS011;47555;51.038;6.280;2023-10-08T07:45:39;10.00;;;3.88;;
25153;SDS011;47555;51.038;6.280;2023-10-08T07:48:10;9.48;;;4.22;;
25153;SDS011;47555;51.038;6.280;2023-10-08T07:50:40;10.35;;;4.43;;
25153;SDS011;47555;51.038;6.280;2023-10-08T07:53:06;8.07;;;4.32;;
25153;SDS011;47555;51.038;6.280;2023-10-08T07:55:34;8.18;;;4.47;;
25153;SDS011;47555;51.038;6.280;2023-10-08T07:58:00;8.23;;;4.25;;
25153;SDS011;47555;51.038;6.280;2023-10-08T08:00:28;6.90;;;3.80;;
25153;SDS011;47555;51.038;6.280;2023-10-08T08:03:03;10.68;;;4.35;;
25153;SDS011;47555;51.038;6.280;2023-10-08T08:05:30;7.50;;;4.30;;
25153;SDS011;47555;51.038;6.280;2023-10-08T08:07:56;10.68;;;4.55;;
25153;SDS011;47555;51.038;6.280;2023-10-08T08:10:24;8.52;;;4.15;;
25153;SDS011;47555;51.038;6.280;2023-10-08T08:12:50;8.10;;;4.00;;
25153;SDS011;47555;51.038;6.280;2023-10-08T08:15:21;6.40;;;4.05;;
25153;SDS011;47555;51.038;6.280;2023-10-08T08:17:48;6.53;;;3.60;;
25153;SDS011;47555;51.038;6.280;2023-10-08T08:20:14;10.38;;;4.38;;
25153;SDS011;47555;51.038;6.280;2023-10-08T08:22:43;12.40;;;4.60;;
25153;SDS011;47555;51.038;6.280;2023-10-08T08:25:17;9.73;;;4.20;;
25153;SDS011;47555;51.038;6.280;2023-10-08T08:27:59;11.73;;;4.53;;
25153;SDS011;47555;51.038;6.280;2023-10-08T08:30:25;8.80;;;4.22;;
25153;SDS011;47555;51.038;6.280;2023-10-08T08:32:53;9.63;;;4.13;;
25153;SDS011;47555;51.038;6.280;2023-10-08T08:35:21;9.13;;;4.25;;
25153;SDS011;47555;51.038;6.280;2023-10-08T08:37:47;9.45;;;4.15;;
25153;SDS011;47555;51.038;6.280;2023-10-08T08:40:14;9.85;;;4.22;;
25153;SDS011;47555;51.038;6.280;2023-10-08T08:42:47;8.23;;;4.22;;
25153;SDS011;47555;51.038;6.280;2023-10-08T08:45:13;9.38;;;4.40;;
25153;SDS011;47555;51.038;6.280;2023-10-08T08:47:41;8.38;;;4.55;;
25153;SDS011;47555;51.038;6.280;2023-10-08T08:50:07;9.70;;;4.90;;
25153;SDS011;47555;51.038;6.280;2023-10-08T08:52:39;9.18;;;4.75;;
25153;SDS011;47555;51.038;6.280;2023-10-08T08:55:06;8.55;;;5.03;;
25153;SDS011;47555;51.038;6.280;2023-10-08T08:57:39;10.05;;;4.80;;
25153;SDS011;47555;51.038;6.280;2023-10-08T09:00:05;12.60;;;5.25;;
25153;SDS011;47555;51.038;6.280;2023-10-08T09:02:35;8.77;;;5.13;;
25153;SDS011;47555;51.038;6.280;2023-10-08T09:05:01;10.50;;;5.20;;
25153;SDS011;47555;51.038;6.280;2023-10-08T09:07:50;11.20;;;5.38;;
25153;SDS011;47555;51.038;6.280;2023-10-08T09:10:17;9.77;;;5.35;;
25153;SDS011;47555;51.038;6.280;2023-10-08T09:12:43;11.77;;;5.70;;
25153;SDS011;47555;51.038;6.280;2023-10-08T09:15:10;11.77;;;5.40;;
25153;SDS011;47555;51.038;6.280;2023-10-08T09:17:39;10.75;;;5.05;;
25153;SDS011;47555;51.038;6.280;2023-10-08T09:20:06;10.23;;;5.43;;
25153;SDS011;47555;51.038;6.280;2023-10-08T09:22:32;10.65;;;4.88;;
25153;SDS011;47555;51.038;6.280;2023-10-08T09:25:00;10.93;;;4.97;;
25153;SDS011;47555;51.038;6.280;2023-10-08T09:27:32;11.00;;;5.00;;
25153;SDS011;47555;51.038;6.280;2023-10-08T09:29:58;11.52;;;5.88;;
25153;SDS011;47555;51.038;6.280;2023-10-08T09:32:32;11.70;;;5.47;;
25153;SDS011;47555;51.038;6.280;2023-10-08T09:34:59;13.63;;;7.15;;
25153;SDS011;47555;51.038;6.280;2023-10-08T09:37:25;13.70;;;6.22;;
25153;SDS011;47555;51.038;6.280;2023-10-08T09:39:52;19.05;;;6.25;;
25153;SDS011;47555;51.038;6.280;2023-10-08T09:42:18;13.75;;;6.25;;
25153;SDS011;47555;51.038;6.280;2023-10-08T09:44:47;15.98;;;7.10;;
25153;SDS011;47555;51.038;6.280;2023-10-08T09:47:14;16.70;;;6.60;;
25153;SDS011;47555;51.038;6.280;2023-10-08T09:50:02;16.58;;;6.93;;
25153;SDS011;47555;51.038;6.280;2023-10-08T09:52:38;14.77;;;6.38;;
25153;SDS011;47555;51.038;6.280;2023-10-08T09:55:08;14.48;;;6.47;;
25153;SDS011;47555;51.038;6.280;2023-10-08T09:57:37;16.45;;;7.10;;
25153;SDS011;47555;51.038;6.280;2023-10-08T10:00:04;17.33;;;7.18;;
25153;SDS011;47555;51.038;6.280;2023-10-08T10:02:43;17.35;;;6.47;;
25153;SDS011;47555;51.038;6.280;2023-10-08T10:05:12;20.40;;;6.97;;
25153;SDS011;47555;51.038;6.280;2023-10-08T10:07:40;14.07;;;6.72;;
25153;SDS011;47555;51.038;6.280;2023-10-08T10:10:28;14.40;;;6.72;;
25153;SDS011;47555;51.038;6.280;2023-10-08T10:13:06;16.67;;;6.82;;
25153;SDS011;47555;51.038;6.280;2023-10-08T10:15:44;14.13;;;6.32;;
25153;SDS011;47555;51.038;6.280;2023-10-08T10:18:14;18.30;;;6.93;;
25153;SDS011;47555;51.038;6.280;2023-10-08T10:20:43;18.02;;;7.45;;
25153;SDS011;47555;51.038;6.280;2023-10-08T10:25:56;15.23;;;6.32;;
25153;SDS011;47555;51.038;6.280;2023-10-08T10:28:22;12.45;;;5.88;;
25153;SDS011;47555;51.038;6.280;2023-10-08T10:30:50;18.27;;;6.50;;
25153;SDS011;47555;51.038;6.280;2023-10-08T10:33:16;18.70;;;7.32;;
25153;SDS011;47555;51.038;6.280;2023-10-08T10:35:48;15.88;;;7.07;;
25153;SDS011;47555;51.038;6.280;2023-10-08T10:38:15;13.45;;;6.22;;
25153;SDS011;47555;51.038;6.280;2023-10-08T10:40:48;17.85;;;8.27;;
25153;SDS011;47555;51.038;6.280;2023-10-08T10:43:22;14.05;;;6.40;;
25153;SDS011;47555;51.038;6.280;2023-10-08T10:45:55;22.30;;;8.15;;
25153;SDS011;47555;51.038;6.280;2023-10-08T10:48:21;15.65;;;7.07;;
25153;SDS011;47555;51.038;6.280;2023-10-08T10:50:48;19.63;;;6.97;;
25153;SDS011;47555;51.038;6.280;2023-10-08T10:53:29;23.52;;;8.50;;
25153;SDS011;47555;51.038;6.280;2023-10-08T10:55:58;16.02;;;6.38;;
25153;SDS011;47555;51.038;6.280;2023-10-08T10:58:34;18.40;;;7.40;;
25153;SDS011;47555;51.038;6.280;2023-10-08T11:01:05;19.88;;;7.82;;
25153;SDS011;47555;51.038;6.280;2023-10-08T11:03:52;17.25;;;7.88;;
25153;SDS011;47555;51.038;6.280;2023-10-08T11:06:18;17.30;;;8.00;;
25153;SDS011;47555;51.038;6.280;2023-10-08T11:08:49;18.20;;;7.15;;
25153;SDS011;47555;51.038;6.280;2023-10-08T11:11:16;19.98;;;6.60;;
25153;SDS011;47555;51.038;6.280;2023-10-08T11:13:43;18.13;;;6.45;;
25153;SDS011;47555;51.038;6.280;2023-10-08T11:16:15;14.90;;;6.72;;
25153;SDS011;47555;51.038;6.280;2023-10-08T11:18:43;15.75;;;7.53;;
25153;SDS011;47555;51.038;6.280;2023-10-08T11:21:11;22.50;;;9.00;;
25153;SDS011;47555;51.038;6.280;2023-10-08T11:23:47;15.75;;;6.93;;
25153;SDS011;47555;51.038;6.280;2023-10-08T11:26:36;13.82;;;6.93;;
25153;SDS011;47555;51.038;6.280;2023-10-08T11:29:19;22.52;;;9.38;;
25153;SDS011;47555;51.038;6.280;2023-10-08T11:31:50;17.93;;;7.87;;
25153;SDS011;47555;51.038;6.280;2023-10-08T11:34:16;20.98;;;9.05;;
25153;SDS011;47555;51.038;6.280;2023-10-08T11:36:52;19.38;;;8.30;;
25153;SDS011;47555;51.038;6.280;2023-10-08T11:39:18;19.65;;;8.27;;
25153;SDS011;47555;51.038;6.280;2023-10-08T11:44:22;15.48;;;7.45;;
25153;SDS011;47555;51.038;6.280;2023-10-08T11:46:49;17.52;;;8.65;;
25153;SDS011;47555;51.038;6.280;2023-10-08T11:49:18;20.38;;;9.25;;
25153;SDS011;47555;51.038;6.280;2023-10-08T11:51:44;19.35;;;7.43;;
25153;SDS011;47555;51.038;6.280;2023-10-08T11:54:13;15.52;;;7.40;;
25153;SDS011;47555;51.038;6.280;2023-10-08T11:56:39;10.30;;;6.00;;
25153;SDS011;47555;51.038;6.280;2023-10-08T11:59:06;18.40;;;8.00;;
25153;SDS011;47555;51.038;6.280;2023-10-08T12:01:36;15.05;;;7.47;;
25153;SDS011;47555;51.038;6.280;2023-10-08T12:04:03;20.05;;;7.75;;
25153;SDS011;47555;51.038;6.280;2023-10-08T12:06:29;14.55;;;7.97;;
25153;SDS011;47555;51.038;6.280;2023-10-08T12:08:56;16.27;;;7.53;;
25153;SDS011;47555;51.038;6.280;2023-10-08T12:11:35;15.05;;;6.65;;
25153;SDS011;47555;51.038;6.280;2023-10-08T12:14:02;13.65;;;8.45;;
25153;SDS011;47555;51.038;6.280;2023-10-08T12:16:30;15.45;;;6.95;;
25153;SDS011;47555;51.038;6.280;2023-10-08T12:19:00;16.67;;;7.03;;
25153;SDS011;47555;51.038;6.280;2023-10-08T12:21:26;17.73;;;7.97;;
25153;SDS011;47555;51.038;6.280;2023-10-08T12:23:54;13.88;;;6.50;;
25153;SDS011;47555;51.038;6.280;2023-10-08T12:26:20;17.55;;;7.22;;
25153;SDS011;47555;51.038;6.280;2023-10-08T12:28:47;13.20;;;6.82;;
25153;SDS011;47555;51.038;6.280;2023-10-08T12:31:13;15.23;;;6.70;;
25153;SDS011;47555;51.038;6.280;2023-10-08T12:33:46;14.60;;;7.45;;
25153;SDS011;47555;51.038;6.280;2023-10-08T12:36:12;16.17;;;7.70;;
25153;SDS011;47555;51.038;6.280;2023-10-08T12:38:39;14.43;;;6.90;;
25153;SDS011;47555;51.038;6.280;2023-10-08T12:41:06;21.38;;;7.88;;
25153;SDS011;47555;51.038;6.280;2023-10-08T12:43:38;18.38;;;8.18;;
25153;SDS011;47555;51.038;6.280;2023-10-08T12:46:07;19.77;;;8.05;;
25153;SDS011;47555;51.038;6.280;2023-10-08T12:48:36;17.90;;;8.82;;
25153;SDS011;47555;51.038;6.280;2023-10-08T12:51:02;12.48;;;7.00;;
25153;SDS011;47555;51.038;6.280;2023-10-08T12:53:31;17.58;;;8.13;;
25153;SDS011;47555;51.038;6.280;2023-10-08T12:56:08;13.20;;;6.25;;
25153;SDS011;47555;51.038;6.280;2023-10-08T12:58:40;13.27;;;7.22;;
25153;SDS011;47555;51.038;6.280;2023-10-08T13:01:09;17.17;;;7.72;;
25153;SDS011;47555;51.038;6.280;2023-10-08T13:03:38;16.60;;;7.78;;
25153;SDS011;47555;51.038;6.280;2023-10-08T13:06:10;16.63;;;7.20;;
25153;SDS011;47555;51.038;6.280;2023-10-08T13:08:39;20.05;;;7.72;;
25153;SDS011;47555;51.038;6.280;2023-10-08T13:11:06;20.38;;;8.25;;
25153;SDS011;47555;51.038;6.280;2023-10-08T13:13:32;19.67;;;7.30;;
25153;SDS011;47555;51.038;6.280;2023-10-08T13:15:59;19.48;;;7.70;;
25153;SDS011;47555;51.038;6.280;2023-10-08T13:18:28;16.45;;;7.20;;
25153;SDS011;47555;51.038;6.280;2023-10-08T13:20:54;14.80;;;7.00;;
25153;SDS011;47555;51.038;6.280;2023-10-08T13:23:20;18.38;;;6.97;;
25153;SDS011;47555;51.038;6.280;2023-10-08T13:25:51;19.55;;;6.93;;
25153;SDS011;47555;51.038;6.280;2023-10-08T13:28:23;15.20;;;6.88;;
25153;SDS011;47555;51.038;6.280;2023-10-08T13:30:52;18.10;;;7.25;;
25153;SDS011;47555;51.038;6.280;2023-10-08T13:33:20;17.20;;;7.70;;
25153;SDS011;47555;51.038;6.280;2023-10-08T13:35:47;19.42;;;7.47;;
25153;SDS011;47555;51.038;6.280;2023-10-08T13:38:15;18.90;;;7.88;;
25153;SDS011;47555;51.038;6.280;2023-10-08T13:40:41;19.80;;;7.95;;
25153;SDS011;47555;51.038;6.280;2023-10-08T13:43:26;21.52;;;7.57;;
25153;SDS011;47555;51.038;6.280;2023-10-08T13:45:58;16.00;;;7.47;;
25153;SDS011;47555;51.038;6.280;2023-10-08T13:48:28;14.57;;;7.53;;
25153;SDS011;47555;51.038;6.280;2023-10-08T13:50:57;18.65;;;7.57;;
25153;SDS011;47555;51.038;6.280;2023-10-08T13:53:24;30.00;;;8.80;;
25153;SDS011;47555;51.038;6.280;2023-10-08T13:55:54;20.05;;;7.82;;
25153;SDS011;47555;51.038;6.280;2023-10-08T13:58:21;19.35;;;8.00;;
25153;SDS011;47555;51.038;6.280;2023-10-08T14:00:47;17.63;;;7.97;;
25153;SDS011;47555;51.038;6.280;2023-10-08T14:03:17;31.30;;;9.07;;
25153;SDS011;47555;51.038;6.280;2023-10-08T14:05:46;16.58;;;7.32;;
25153;SDS011;47555;51.038;6.280;2023-10-08T14:08:15;19.27;;;7.53;;
25153;SDS011;47555;51.038;6.280;2023-10-08T14:10:42;17.45;;;7.68;;
25153;SDS011;47555;51.038;6.280;2023-10-08T14:13:08;18.48;;;7.43;;
25153;SDS011;47555;51.038;6.280;2023-10-08T14:15:34;19.70;;;7.38;;
25153;SDS011;47555;51.038;6.280;2023-10-08T14:18:07;14.63;;;7.00;;
25153;SDS011;47555;51.038;6.280;2023-10-08T14:20:33;14.48;;;7.18;;
25153;SDS011;47555;51.038;6.280;2023-10-08T14:22:59;17.77;;;7.93;;
25153;SDS011;47555;51.038;6.280;2023-10-08T14:25:27;19.30;;;7.70;;
25153;SDS011;47555;51.038;6.280;2023-10-08T14:27:59;22.63;;;8.90;;
25153;SDS011;47555;51.038;6.280;2023-10-08T14:30:30;19.92;;;7.32;;
25153;SDS011;47555;51.038;6.280;2023-10-08T14:32:56;21.52;;;7.47;;
25153;SDS011;47555;51.038;6.280;2023-10-08T14:35:23;20.23;;;8.88;;
25153;SDS011;47555;51.038;6.280;2023-10-08T14:38:07;18.35;;;7.35;;
25153;SDS011;47555;51.038;6.280;2023-10-08T14:40:52;19.20;;;8.30;;
25153;SDS011;47555;51.038;6.280;2023-10-08T14:43:36;16.23;;;7.30;;
25153;SDS011;47555;51.038;6.280;2023-10-08T14:46:02;15.50;;;7.20;;
25153;SDS011;47555;51.038;6.280;2023-10-08T14:48:34;18.48;;;8.07;;
25153;SDS011;47555;51.038;6.280;2023-10-08T14:51:03;16.65;;;7.20;;
25153;SDS011;47555;51.038;6.280;2023-10-08T14:55:59;13.05;;;7.25;;
25153;SDS011;47555;51.038;6.280;2023-10-08T14:58:29;19.85;;;7.80;;
25153;SDS011;47555;51.038;6.280;2023-10-08T15:00:55;18.85;;;7.90;;
25153;SDS011;47555;51.038;6.280;2023-10-08T15:03:21;19.90;;;7.80;;
25153;SDS011;47555;51.038;6.280;2023-10-08T15:05:47;16.50;;;6.68;;
25153;SDS011;47555;51.038;6.280;2023-10-08T15:08:14;19.80;;;8.20;;
25153;SDS011;47555;51.038;6.280;2023-10-08T15:10:43;12.30;;;6.43;;
25153;SDS011;47555;51.038;6.280;2023-10-08T15:13:11;13.57;;;6.75;;
25153;SDS011;47555;51.038;6.280;2023-10-08T15:15:37;16.17;;;6.80;;
25153;SDS011;47555;51.038;6.280;2023-10-08T15:18:05;15.73;;;7.03;;
25153;SDS011;47555;51.038;6.280;2023-10-08T15:20:31;15.60;;;7.45;;
25153;SDS011;47555;51.038;6.280;2023-10-08T15:22:58;16.60;;;7.65;;